Time;durP1;ratioP1;P1;durP2;ratioP2;P2;SDS_P1;SDS_P2;PMS_P1;PMS_P2;Temp;Humidity;BMP_temperature;BMP_pressure;BME280_temperature;BME280_humidity;BME280_pressure;Samples;Min_cycle;Max_cycle;Signal;HPM_P1;HPM_P2
2022/04/06 00:01:21;;;;;;;;;;;18.60;57.30;;;;;;5013570;28;1294;-71
2022/04/06 00:03:47;;;;;;;;;;;18.60;57.30;;;;;;4995731;28;1949;-69
2022/04/06 00:06:12;;;;;;;;;;;18.60;57.30;;;;;;5012996;28;970;-65
2022/04/06 00:08:38;;;;;;;;;;;18.60;57.30;;;;;;5013192;28;934;-65
2022/04/06 00:11:03;;;;;;;;;;;18.50;57.30;;;;;;5013442;28;1307;-66
2022/04/06 00:13:29;;;;;;;;;;;18.60;57.30;;;;;;5013367;28;708;-66
2022/04/06 00:15:54;;;;;;;;;;;18.50;57.30;;;;;;5012677;28;804;-67
2022/04/06 00:18:20;;;;;;;;;;;18.50;57.30;;;;;;5013494;28;816;-66
2022/04/06 00:20:45;;;;;;;;;;;18.50;57.30;;;;;;5013082;28;1280;-66
2022/04/06 00:23:11;;;;;;;;;;;18.50;57.30;;;;;;5013110;28;1930;-69
2022/04/06 00:25:36;;;;;;;;;;;18.50;57.30;;;;;;5012510;28;791;-68
2022/04/06 00:28:02;;;;;;;;;;;18.50;57.40;;;;;;5012946;28;1123;-69
2022/04/06 00:30:27;;;;;;;;;;;18.50;57.40;;;;;;5012807;28;1204;-69
2022/04/06 00:32:53;;;;;;;;;;;18.50;57.40;;;;;;5013253;28;934;-69
2022/04/06 00:35:34;;;;;;;;;;;18.50;57.40;;;;;;5012932;28;943;-68
2022/04/06 00:38:03;;;;;;;;;;;18.50;57.40;;;;;;5012644;28;1210;-68
2022/04/06 00:40:29;;;;;;;;;;;18.50;57.40;;;;;;5012722;28;1243;-68
2022/04/06 00:42:54;;;;;;;;;;;18.50;57.40;;;;;;4995164;28;1943;-68
2022/04/06 00:45:20;;;;;;;;;;;18.50;57.40;;;;;;5012808;28;709;-68
2022/04/06 00:47:46;;;;;;;;;;;18.50;57.40;;;;;;5012250;28;1014;-68
2022/04/06 00:50:12;;;;;;;;;;;18.50;57.40;;;;;;5014331;28;1225;-67
2022/04/06 00:52:39;;;;;;;;;;;18.50;57.50;;;;;;5032017;28;674;-68
2022/04/06 00:55:05;;;;;;;;;;;18.50;57.50;;;;;;5015147;28;808;-67
2022/04/06 00:57:30;;;;;;;;;;;18.50;57.50;;;;;;5031854;28;796;-67
2022/04/06 00:59:56;;;;;;;;;;;18.50;57.50;;;;;;5032199;28;834;-67
2022/04/06 01:02:21;;;;;;;;;;;18.50;57.50;;;;;;5032380;28;1898;-68
2022/04/06 01:04:46;;;;;;;;;;;18.50;57.50;;;;;;5032335;28;879;-67
2022/04/06 01:07:12;;;;;;;;;;;18.50;57.50;;;;;;5031745;28;903;-67
2022/04/06 01:09:37;;;;;;;;;;;18.50;57.50;;;;;;5014809;28;1006;-68
2022/04/06 01:12:03;;;;;;;;;;;18.50;57.50;;;;;;5031872;28;1194;-66
2022/04/06 01:14:28;;;;;;;;;;;18.50;57.60;;;;;;5032397;28;917;-67
2022/04/06 01:16:58;;;;;;;;;;;18.50;57.60;;;;;;5031720;28;700;-67
2022/04/06 01:19:23;;;;;;;;;;;18.50;57.60;;;;;;5032449;28;803;-67
2022/04/06 01:21:49;;;;;;;;;;;18.50;57.60;;;;;;5014207;28;1208;-67
2022/04/06 01:24:14;;;;;;;;;;;18.50;57.60;;;;;;5032206;28;2000;-67
2022/04/06 01:26:40;;;;;;;;;;;18.40;57.60;;;;;;5028530;28;1194;-67
2022/04/06 01:29:05;;;;;;;;;;;18.40;57.60;;;;;;5011977;28;1112;-67
2022/04/06 01:31:30;;;;;;;;;;;18.40;57.60;;;;;;5012118;28;1173;-68
2022/04/06 01:33:56;;;;;;;;;;;18.40;57.60;;;;;;5012457;28;704;-67
2022/04/06 01:36:22;;;;;;;;;;;18.40;57.60;;;;;;4994222;28;1167;-66
2022/04/06 01:38:47;;;;;;;;;;;18.40;57.60;;;;;;5012280;28;815;-65
2022/04/06 01:41:13;;;;;;;;;;;18.40;57.60;;;;;;5012370;28;1221;-65
2022/04/06 01:43:38;;;;;;;;;;;18.50;57.60;;;;;;5012013;28;1903;-65
2022/04/06 01:46:03;;;;;;;;;;;18.50;57.60;;;;;;5011844;28;915;-65
2022/04/06 01:48:29;;;;;;;;;;;18.50;57.50;;;;;;5012548;28;758;-65
2022/04/06 01:53:39;;;;;;;;;;;18.50;57.30;;;;;;5015814;28;683;-66
2022/04/06 01:56:04;;;;;;;;;;;18.50;57.30;;;;;;5015429;28;789;-67
2022/04/06 01:58:29;;;;;;;;;;;18.60;57.20;;;;;;5015662;28;797;-66
2022/04/06 02:00:55;;;;;;;;;;;18.60;57.10;;;;;;5022417;28;1592;-70
2022/04/06 02:03:20;;;;;;;;;;;18.60;57.10;;;;;;5035128;28;1957;-69
2022/04/06 02:05:46;;;;;;;;;;;18.70;57.00;;;;;;5035066;28;830;-69
2022/04/06 02:08:11;;;;;;;;;;;18.70;57.00;;;;;;5035401;28;835;-70
2022/04/06 02:10:39;;;;;;;;;;;18.70;56.90;;;;;;5017785;28;1217;-69
2022/04/06 02:13:04;;;;;;;;;;;18.70;56.80;;;;;;5034889;28;836;-69
2022/04/06 02:15:30;;;;;;;;;;;18.70;56.80;;;;;;5017294;28;1072;-68
2022/04/06 02:17:55;;;;;;;;;;;18.80;56.80;;;;;;5034839;28;815;-70
2022/04/06 02:20:21;;;;;;;;;;;18.80;56.80;;;;;;5007658;28;1293;-69
2022/04/06 02:22:46;;;;;;;;;;;18.80;56.80;;;;;;5024439;28;1901;-68
2022/04/06 02:25:15;;;;;;;;;;;18.80;56.70;;;;;;5020734;28;1211;-69
2022/04/06 02:27:47;;;;;;;;;;;18.80;56.70;;;;;;4997074;28;1100;-69
2022/04/06 02:30:12;;;;;;;;;;;18.80;56.60;;;;;;5012639;28;1334;-70
2022/04/06 02:32:38;;;;;;;;;;;18.80;56.60;;;;;;5030326;28;1208;-67
2022/04/06 02:35:03;;;;;;;;;;;18.80;56.60;;;;;;5003889;28;1270;-67
2022/04/06 02:37:29;;;;;;;;;;;18.80;56.60;;;;;;5004106;28;1428;-67
2022/04/06 02:39:54;;;;;;;;;;;18.80;56.50;;;;;;5002700;28;1289;-67
2022/04/06 02:42:20;;;;;;;;;;;18.90;56.60;;;;;;5003214;28;1971;-67
2022/04/06 02:44:45;;;;;;;;;;;18.90;56.50;;;;;;5020852;28;1277;-66
2022/04/06 02:47:10;;;;;;;;;;;18.90;56.50;;;;;;5018625;28;1256;-69
2022/04/06 02:49:36;;;;;;;;;;;18.90;56.50;;;;;;5014943;28;2070;-69
2022/04/06 02:52:01;;;;;;;;;;;18.90;56.40;;;;;;5014634;28;1188;-69
2022/04/06 02:54:27;;;;;;;;;;;18.90;56.40;;;;;;5014834;28;808;-69
2022/04/06 02:56:52;;;;;;;;;;;18.90;56.40;;;;;;4996984;28;858;-68
2022/04/06 02:59:18;;;;;;;;;;;18.90;56.40;;;;;;4996637;28;872;-69
2022/04/06 03:01:43;;;;;;;;;;;18.90;56.40;;;;;;5014582;28;1299;-69
2022/04/06 03:04:08;;;;;;;;;;;18.90;56.30;;;;;;5014235;28;1899;-69
2022/04/06 03:06:35;;;;;;;;;;;18.90;56.30;;;;;;5013978;28;868;-68
2022/04/06 03:09:00;;;;;;;;;;;18.90;56.20;;;;;;5014452;28;918;-68
2022/04/06 03:11:26;;;;;;;;;;;18.90;56.20;;;;;;5013953;28;1205;-69
2022/04/06 03:13:52;;;;;;;;;;;18.90;56.20;;;;;;5014450;28;792;-69
2022/04/06 03:16:17;;;;;;;;;;;18.90;56.20;;;;;;5014068;28;768;-69
2022/04/06 03:18:43;;;;;;;;;;;18.90;56.20;;;;;;5014256;28;978;-69
2022/04/06 03:21:08;;;;;;;;;;;19.00;56.20;;;;;;4996430;28;1307;-69
2022/04/06 03:23:33;;;;;;;;;;;19.00;56.20;;;;;;5013994;28;1895;-68
2022/04/06 03:25:59;;;;;;;;;;;19.00;56.20;;;;;;5013670;28;809;-69
2022/04/06 03:28:24;;;;;;;;;;;19.00;56.20;;;;;;5014104;28;1069;-69
2022/04/06 03:30:50;;;;;;;;;;;19.00;56.20;;;;;;4996128;28;1207;-69
2022/04/06 03:33:15;;;;;;;;;;;19.00;56.20;;;;;;5013715;28;777;-69
2022/04/06 03:35:40;;;;;;;;;;;19.00;56.20;;;;;;5013696;28;995;-69
2022/04/06 03:38:06;;;;;;;;;;;19.00;56.20;;;;;;4996204;28;1282;-69
2022/04/06 03:40:31;;;;;;;;;;;19.00;56.20;;;;;;5013812;28;1299;-68
2022/04/06 03:42:57;;;;;;;;;;;19.00;56.10;;;;;;5013417;28;1957;-69
2022/04/06 03:45:22;;;;;;;;;;;19.00;56.10;;;;;;4996219;28;872;-68
2022/04/06 03:47:48;;;;;;;;;;;19.00;56.10;;;;;;5013239;28;776;-69
2022/04/06 03:50:13;;;;;;;;;;;19.00;56.10;;;;;;5013796;28;1216;-70
2022/04/06 03:52:39;;;;;;;;;;;19.00;56.10;;;;;;5013448;28;705;-69
2022/04/06 03:55:05;;;;;;;;;;;19.00;56.10;;;;;;4996212;28;842;-68
2022/04/06 03:57:31;;;;;;;;;;;19.00;56.10;;;;;;5013205;28;868;-69
2022/04/06 03:59:56;;;;;;;;;;;19.00;56.10;;;;;;5013564;28;958;-69
2022/04/06 04:02:22;;;;;;;;;;;19.00;56.10;;;;;;5013090;28;1903;-68
2022/04/06 04:04:47;;;;;;;;;;;19.00;56.10;;;;;;5013522;28;820;-69
2022/04/06 04:07:18;;;;;;;;;;;19.00;56.10;;;;;;5013077;28;824;-68
2022/04/06 04:09:44;;;;;;;;;;;19.00;56.10;;;;;;4996231;28;805;-69
2022/04/06 04:12:09;;;;;;;;;;;19.00;56.10;;;;;;4995579;28;1526;-69
2022/04/06 04:14:35;;;;;;;;;;;19.00;56.10;;;;;;5012978;28;967;-68
2022/04/06 04:17:01;;;;;;;;;;;19.00;56.00;;;;;;5012321;28;903;-69
2022/04/06 04:19:26;;;;;;;;;;;19.00;56.00;;;;;;4995660;28;836;-69
2022/04/06 04:21:52;;;;;;;;;;;19.00;56.10;;;;;;5013247;28;1185;-69
2022/04/06 04:24:17;;;;;;;;;;;19.00;56.00;;;;;;5013063;28;1970;-68
2022/04/06 04:26:43;;;;;;;;;;;19.00;56.10;;;;;;5012449;28;1124;-69
2022/04/06 04:29:08;;;;;;;;;;;19.00;56.10;;;;;;5013116;28;1162;-69
2022/04/06 04:31:34;;;;;;;;;;;19.00;56.00;;;;;;5012273;28;1224;-68
2022/04/06 04:33:59;;;;;;;;;;;19.00;56.10;;;;;;4995484;28;812;-69
2022/04/06 04:36:24;;;;;;;;;;;19.00;56.10;;;;;;4995138;28;1136;-69
2022/04/06 04:38:50;;;;;;;;;;;19.00;56.10;;;;;;5012852;28;708;-68
2022/04/06 04:41:16;;;;;;;;;;;19.00;56.10;;;;;;5012715;28;1230;-69
2022/04/06 04:43:41;;;;;;;;;;;19.00;56.00;;;;;;4995164;28;1934;-69
2022/04/06 04:46:07;;;;;;;;;;;19.00;56.10;;;;;;4994825;28;876;-69
2022/04/06 04:48:32;;;;;;;;;;;19.00;56.10;;;;;;5012635;28;815;-68
2022/04/06 04:50:58;;;;;;;;;;;19.00;56.00;;;;;;4995425;28;1205;-67
2022/04/06 04:53:23;;;;;;;;;;;19.00;56.00;;;;;;5012714;28;887;-69
2022/04/06 04:55:49;;;;;;;;;;;19.10;56.10;;;;;;5012534;28;851;-68
2022/04/06 04:58:14;;;;;;;;;;;19.10;56.10;;;;;;5013034;28;1110;-67
2022/04/06 05:00:40;;;;;;;;;;;19.10;56.10;;;;;;5012626;28;1299;-68
2022/04/06 05:03:05;;;;;;;;;;;19.10;56.10;;;;;;5012675;28;1967;-69
2022/04/06 05:05:31;;;;;;;;;;;19.10;56.10;;;;;;5012318;28;915;-67
2022/04/06 05:07:59;;;;;;;;;;;19.10;56.00;;;;;;5012453;28;826;-69
2022/04/06 05:10:25;;;;;;;;;;;19.10;56.00;;;;;;5012784;28;1223;-68
2022/04/06 05:12:51;;;;;;;;;;;19.10;56.00;;;;;;5013348;28;847;-69
2022/04/06 05:15:16;;;;;;;;;;;19.10;56.00;;;;;;5012775;28;850;-68
2022/04/06 05:17:42;;;;;;;;;;;19.10;56.00;;;;;;5011750;28;812;-68
2022/04/06 05:20:07;;;;;;;;;;;19.10;56.00;;;;;;5012577;28;1149;-69
2022/04/06 05:22:33;;;;;;;;;;;19.10;56.00;;;;;;5012747;28;1898;-69
2022/04/06 05:25:00;;;;;;;;;;;19.10;56.10;;;;;;4995141;28;852;-69
2022/04/06 05:27:25;;;;;;;;;;;19.10;56.00;;;;;;5013698;28;1194;-69
2022/04/06 05:29:51;;;;;;;;;;;19.10;56.00;;;;;;5002097;28;1954;-66
2022/04/06 05:32:16;;;;;;;;;;;19.10;56.10;;;;;;5009527;28;1308;-65
2022/04/06 05:34:42;;;;;;;;;;;19.10;56.00;;;;;;5010765;28;1699;-66
2022/04/06 05:37:07;;;;;;;;;;;19.10;56.00;;;;;;5014204;28;1913;-66
2022/04/06 05:39:32;;;;;;;;;;;19.10;56.00;;;;;;5014001;28;1228;-66
2022/04/06 05:41:58;;;;;;;;;;;19.10;56.00;;;;;;5013645;28;1290;-64
2022/04/06 05:44:23;;;;;;;;;;;19.10;56.10;;;;;;5014387;28;1926;-70
2022/04/06 05:46:49;;;;;;;;;;;19.10;56.00;;;;;;5014457;28;1115;-69
2022/04/06 05:49:14;;;;;;;;;;;19.10;56.00;;;;;;5012299;28;1115;-68
2022/04/06 05:51:40;;;;;;;;;;;19.10;56.10;;;;;;5015418;28;1236;-68
2022/04/06 05:54:05;;;;;;;;;;;19.10;56.00;;;;;;5015254;28;706;-66
2022/04/06 05:56:31;;;;;;;;;;;19.10;56.00;;;;;;5014812;28;792;-67
2022/04/06 05:58:56;;;;;;;;;;;19.10;56.00;;;;;;5013846;28;895;-68
2022/04/06 06:01:21;;;;;;;;;;;19.10;56.10;;;;;;5015104;28;1266;-66
2022/04/06 06:03:47;;;;;;;;;;;19.10;56.10;;;;;;5015138;28;1890;-67
2022/04/06 06:06:12;;;;;;;;;;;19.10;56.10;;;;;;5014654;28;890;-71
2022/04/06 06:08:38;;;;;;;;;;;19.10;56.10;;;;;;5013115;28;875;-67
2022/04/06 06:11:04;;;;;;;;;;;19.10;56.00;;;;;;5036295;22;2061;-70
2022/04/06 06:13:30;;;;;;;;;;;19.10;56.00;;;;;;5032086;28;811;-70
2022/04/06 06:15:55;;;;;;;;;;;19.10;56.10;;;;;;5035117;28;958;-69
2022/04/06 06:18:22;;;;;;;;;;;19.10;56.00;;;;;;5035207;28;804;-70
2022/04/06 06:20:48;;;;;;;;;;;19.10;56.10;;;;;;5034947;28;1295;-70
2022/04/06 06:23:13;;;;;;;;;;;19.10;56.10;;;;;;5017330;28;1918;-69
2022/04/06 06:25:38;;;;;;;;;;;19.10;56.00;;;;;;5033590;28;789;-69
2022/04/06 06:28:04;;;;;;;;;;;19.10;56.00;;;;;;5040337;28;1159;-69
2022/04/06 06:30:29;;;;;;;;;;;19.10;56.00;;;;;;5053424;28;1220;-69
2022/04/06 06:32:55;;;;;;;;;;;19.10;56.00;;;;;;5036676;28;1274;-68
2022/04/06 06:35:21;;;;;;;;;;;19.10;56.00;;;;;;5053842;28;1033;-68
2022/04/06 06:37:46;;;;;;;;;;;19.10;56.00;;;;;;5036127;28;1130;-68
2022/04/06 06:40:12;;;;;;;;;;;19.10;56.10;;;;;;5016647;28;1304;-68
2022/04/06 06:42:37;;;;;;;;;;;19.10;56.00;;;;;;5033217;28;1951;-69
2022/04/06 06:45:03;;;;;;;;;;;19.10;56.10;;;;;;5034462;28;1033;-69
2022/04/06 06:47:28;;;;;;;;;;;19.10;56.00;;;;;;5034496;28;934;-69
2022/04/06 06:49:54;;;;;;;;;;;19.10;56.10;;;;;;5034484;28;1209;-69
2022/04/06 06:52:19;;;;;;;;;;;19.10;56.10;;;;;;5016956;28;1034;-69
2022/04/06 06:54:45;;;;;;;;;;;19.10;56.00;;;;;;5016976;28;891;-68
2022/04/06 06:57:11;;;;;;;;;;;19.10;56.10;;;;;;5033839;28;871;-68
2022/04/06 06:59:37;;;;;;;;;;;19.10;56.10;;;;;;5034581;28;1279;-68
2022/04/06 07:02:02;;;;;;;;;;;19.10;56.10;;;;;;5014375;28;2257;-68
2022/04/06 07:04:28;;;;;;;;;;;19.10;56.10;;;;;;5032710;28;1906;-68
2022/04/06 07:06:53;;;;;;;;;;;19.10;56.10;;;;;;5033618;28;886;-68
2022/04/06 07:09:19;;;;;;;;;;;19.10;56.10;;;;;;5032707;28;1346;-68
2022/04/06 07:11:44;;;;;;;;;;;19.10;56.10;;;;;;5034145;28;1117;-68
2022/04/06 07:14:09;;;;;;;;;;;19.10;56.10;;;;;;5034028;28;886;-68
2022/04/06 07:16:36;;;;;;;;;;;19.10;56.10;;;;;;5033333;28;1373;-68
2022/04/06 07:19:01;;;;;;;;;;;19.10;56.10;;;;;;5033881;28;902;-68
2022/04/06 07:21:27;;;;;;;;;;;19.10;56.10;;;;;;5034032;28;1338;-68
2022/04/06 07:23:54;;;;;;;;;;;19.10;56.00;;;;;;5033808;28;1917;-68
2022/04/06 07:26:19;;;;;;;;;;;19.20;55.90;;;;;;5032221;28;1096;-68
2022/04/06 07:28:45;;;;;;;;;;;19.30;55.80;;;;;;5045128;28;1170;-68
2022/04/06 07:31:11;;;;;;;;;;;19.40;55.70;;;;;;5053715;28;1227;-68
2022/04/06 07:33:37;;;;;;;;;;;19.40;55.50;;;;;;5052306;28;788;-68
2022/04/06 07:36:03;;;;;;;;;;;19.50;55.40;;;;;;5049861;28;1111;-68
2022/04/06 07:38:29;;;;;;;;;;;19.60;55.30;;;;;;5033530;28;791;-68
2022/04/06 07:40:54;;;;;;;;;;;19.70;55.10;;;;;;5033562;28;1195;-68
2022/04/06 07:43:20;;;;;;;;;;;19.80;54.90;;;;;;5033623;28;1910;-68
2022/04/06 07:45:45;;;;;;;;;;;19.90;54.70;;;;;;5032898;28;882;-68
2022/04/06 07:48:12;;;;;;;;;;;20.00;54.50;;;;;;5033572;28;1053;-68
2022/04/06 07:50:37;;;;;;;;;;;20.10;54.40;;;;;;5014704;28;1283;-68
2022/04/06 07:53:03;;;;;;;;;;;20.10;54.30;;;;;;5033567;28;883;-68
2022/04/06 07:55:29;;;;;;;;;;;20.20;54.10;;;;;;5032984;28;804;-68
2022/04/06 07:57:54;;;;;;;;;;;20.20;53.90;;;;;;5033143;28;875;-68
2022/04/06 08:00:20;;;;;;;;;;;20.30;53.80;;;;;;5015210;28;1307;-68
2022/04/06 08:02:46;;;;;;;;;;;20.30;53.70;;;;;;5033306;28;1894;-68
2022/04/06 08:05:11;;;;;;;;;;;20.40;53.60;;;;;;5032027;28;1072;-68
2022/04/06 08:07:39;;;;;;;;;;;20.40;54.10;;;;;;5031606;28;733;-68
2022/04/06 08:10:08;;;;;;;;;;;20.50;53.40;;;;;;5032655;28;1272;-68
2022/04/06 08:12:34;;;;;;;;;;;20.50;53.30;;;;;;5033210;28;866;-68
2022/04/06 08:15:00;;;;;;;;;;;20.60;53.30;;;;;;5031597;28;1052;-68
2022/04/06 08:17:25;;;;;;;;;;;20.60;53.20;;;;;;5032503;28;1044;-68
2022/04/06 08:19:51;;;;;;;;;;;20.60;53.20;;;;;;5032768;28;1227;-67
2022/04/06 08:22:16;;;;;;;;;;;20.60;53.10;;;;;;5032875;28;1956;-68
2022/04/06 08:24:42;;;;;;;;;;;20.60;53.10;;;;;;5032919;28;836;-68
2022/04/06 08:27:07;;;;;;;;;;;20.70;53.10;;;;;;5031923;28;1194;-68
2022/04/06 08:29:33;;;;;;;;;;;20.70;53.10;;;;;;5050686;28;1264;-68
2022/04/06 08:31:58;;;;;;;;;;;20.70;53.10;;;;;;5052747;28;894;-69
2022/04/06 08:34:24;;;;;;;;;;;20.70;53.10;;;;;;5052821;28;720;-69
2022/04/06 08:36:49;;;;;;;;;;;20.70;53.10;;;;;;5043335;28;1162;-68
2022/04/06 08:39:15;;;;;;;;;;;20.70;53.10;;;;;;5032377;28;1303;-68
2022/04/06 08:41:40;;;;;;;;;;;20.80;53.10;;;;;;5032617;28;824;-68
2022/04/06 08:44:06;;;;;;;;;;;20.70;53.00;;;;;;5031615;28;1979;-69
2022/04/06 08:46:34;;;;;;;;;;;20.70;53.00;;;;;;5031936;28;1018;-69
2022/04/06 08:49:00;;;;;;;;;;;20.70;53.10;;;;;;5032497;28;911;-68
2022/04/06 08:51:25;;;;;;;;;;;20.70;53.00;;;;;;5032474;28;1278;-68
2022/04/06 08:53:51;;;;;;;;;;;20.70;53.00;;;;;;5031296;28;1239;-69
2022/04/06 08:56:16;;;;;;;;;;;20.70;53.10;;;;;;5030771;28;1338;-68
2022/04/06 08:58:42;;;;;;;;;;;20.70;53.10;;;;;;5032298;28;894;-68
2022/04/06 09:01:07;;;;;;;;;;;20.70;53.20;;;;;;5033717;28;1275;-70
2022/04/06 09:03:34;;;;;;;;;;;20.60;53.20;;;;;;5035296;28;1902;-70
2022/04/06 09:06:03;;;;;;;;;;;20.60;53.30;;;;;;5036770;28;824;-69
2022/04/06 09:08:35;;;;;;;;;;;20.60;53.30;;;;;;5036356;28;803;-70
2022/04/06 09:11:13;;;;;;;;;;;20.60;53.40;;;;;;5037048;28;1206;-70
2022/04/06 09:13:41;;;;;;;;;;;20.50;53.40;;;;;;5036662;28;1041;-70
2022/04/06 09:16:07;;;;;;;;;;;20.50;53.50;;;;;;5035241;28;894;-72
2022/04/06 09:18:36;;;;;;;;;;;20.50;53.70;;;;;;5034760;28;1033;-70
2022/04/06 09:21:02;;;;;;;;;;;20.40;53.70;;;;;;5034802;28;1348;-70
2022/04/06 09:23:33;;;;;;;;;;;20.40;53.80;;;;;;5034951;28;1914;-70
2022/04/06 09:26:03;;;;;;;;;;;20.40;53.90;;;;;;5035996;28;1081;-71
2022/04/06 09:28:29;;;;;;;;;;;20.30;53.90;;;;;;5045091;28;1131;-70
2022/04/06 09:30:54;;;;;;;;;;;20.30;54.00;;;;;;5055135;28;1262;-70
2022/04/06 09:33:19;;;;;;;;;;;20.30;54.00;;;;;;5056407;28;796;-70
2022/04/06 09:35:45;;;;;;;;;;;20.30;54.10;;;;;;5055455;28;875;-70
2022/04/06 09:38:22;;;;;;;;;;;20.20;54.10;;;;;;5035952;28;1441;-70
2022/04/06 09:40:47;;;;;;;;;;;20.20;54.20;;;;;;5036016;28;1230;-70
2022/04/06 09:43:31;;;;;;;;;;;20.20;54.30;;;;;;5034599;28;1910;-70
2022/04/06 09:48:54;;;;;;;;;;;20.10;54.50;;;;;;5034431;28;721;-70
2022/04/06 09:51:19;;;;;;;;;;;20.10;54.50;;;;;;5035646;28;1175;-70
2022/04/06 09:53:45;;;;;;;;;;;20.10;54.60;;;;;;5035735;28;1005;-70
2022/04/06 09:56:10;;;;;;;;;;;20.00;54.60;;;;;;5034308;28;897;-70
2022/04/06 09:58:35;;;;;;;;;;;20.00;54.70;;;;;;5034120;28;902;-70
2022/04/06 10:01:01;;;;;;;;;;;20.00;54.70;;;;;;5030004;28;2273;-70
2022/04/06 10:03:26;;;;;;;;;;;20.00;54.80;;;;;;5016078;28;1891;-70
2022/04/06 10:05:52;;;;;;;;;;;19.90;54.80;;;;;;5033642;28;1294;-70
2022/04/06 10:08:18;;;;;;;;;;;19.90;54.90;;;;;;5033269;28;712;-71
2022/04/06 10:10:43;;;;;;;;;;;19.90;55.00;;;;;;5032307;28;1264;-71
2022/04/06 10:13:08;;;;;;;;;;;19.90;55.00;;;;;;5032774;28;620;-70
2022/04/06 10:15:34;;;;;;;;;;;19.90;55.10;;;;;;5034508;28;780;-70
2022/04/06 10:18:00;;;;;;;;;;;19.90;55.20;;;;;;5035130;28;867;-71
2022/04/06 10:20:28;;;;;;;;;;;19.80;55.20;;;;;;5033932;28;1314;-71
2022/04/06 10:22:59;;;;;;;;;;;19.80;55.20;;;;;;5035339;28;1906;-70
2022/04/06 10:25:26;;;;;;;;;;;19.80;55.30;;;;;;5033935;28;1033;-71
2022/04/06 10:27:53;;;;;;;;;;;19.80;55.30;;;;;;5036314;28;1174;-71
2022/04/06 10:30:20;;;;;;;;;;;19.80;55.30;;;;;;5053724;28;1224;-71
2022/04/06 10:32:46;;;;;;;;;;;19.80;55.40;;;;;;5053763;28;890;-70
2022/04/06 10:35:27;;;;;;;;;;;19.80;55.30;;;;;;5053930;28;819;-71
2022/04/06 10:37:56;;;;;;;;;;;19.80;55.40;;;;;;5037294;28;1201;-71
2022/04/06 10:40:22;;;;;;;;;;;19.80;55.30;;;;;;5034526;28;1199;-70
2022/04/06 10:42:47;;;;;;;;;;;19.80;55.90;;;;;;5034826;28;1894;-70
2022/04/06 10:45:24;;;;;;;;;;;19.90;55.20;;;;;;5034870;28;772;-69
2022/04/06 10:48:09;;;;;;;;;;;19.90;55.20;;;;;;5033459;28;1292;-67
2022/04/06 10:50:35;;;;;;;;;;;19.90;55.10;;;;;;5027553;28;1291;-71
2022/04/06 10:53:19;;;;;;;;;;;20.00;55.00;;;;;;5004246;28;2075;-71
2022/04/06 10:55:55;;;;;;;;;;;20.00;54.90;;;;;;5027933;28;1283;-71
2022/04/06 10:58:23;;;;;;;;;;;20.10;54.90;;;;;;5036592;28;1117;-71
2022/04/06 11:01:07;;;;;;;;;;;20.10;54.70;;;;;;5037991;28;1291;-70
2022/04/06 11:03:33;;;;;;;;;;;20.10;54.70;;;;;;5033328;28;1894;-70
2022/04/06 11:05:58;;;;;;;;;;;20.20;54.60;;;;;;5031958;28;1030;-69
2022/04/06 11:11:36;;;;;;;;;;;20.20;54.50;;;;;;5043475;28;1285;-68
2022/04/06 11:14:02;;;;;;;;;;;20.20;54.40;;;;;;5052232;28;1080;-67
2022/04/06 11:16:54;;;;;;;;;;;20.20;54.40;;;;;;5051385;28;943;-68
2022/04/06 11:19:19;;;;;;;;;;;20.20;54.40;;;;;;5049944;28;1203;-73
2022/04/06 11:21:45;;;;;;;;;;;20.20;54.30;;;;;;5052665;28;820;-73
2022/04/06 11:24:11;;;;;;;;;;;20.20;54.50;;;;;;5053434;28;1975;-73
2022/04/06 11:26:37;;;;;;;;;;;20.20;54.40;;;;;;5048525;28;1302;-73
2022/04/06 11:29:02;;;;;;;;;;;20.20;54.40;;;;;;5033188;28;1784;-74
2022/04/06 11:31:28;;;;;;;;;;;20.20;54.40;;;;;;5032198;28;1271;-72
2022/04/06 11:33:53;;;;;;;;;;;20.20;54.40;;;;;;5033829;28;1111;-73
2022/04/06 11:36:19;;;;;;;;;;;20.20;54.40;;;;;;5033149;28;1103;-71
2022/04/06 11:38:48;;;;;;;;;;;20.20;54.40;;;;;;5032262;28;2221;-75
2022/04/06 11:41:13;;;;;;;;;;;20.20;54.50;;;;;;5013404;28;1935;-75
2022/04/06 11:43:40;;;;;;;;;;;20.20;54.50;;;;;;5033354;28;1902;-74
2022/04/06 11:46:05;;;;;;;;;;;20.20;54.50;;;;;;5033137;28;867;-75
2022/04/06 11:48:37;;;;;;;;;;;20.20;54.50;;;;;;5033603;28;918;-75
2022/04/06 11:51:03;;;;;;;;;;;20.20;54.50;;;;;;5032229;28;1214;-74
2022/04/06 11:53:28;;;;;;;;;;;20.10;54.50;;;;;;5032225;28;839;-76
2022/04/06 11:55:54;;;;;;;;;;;20.20;54.60;;;;;;5031581;28;986;-74
2022/04/06 11:58:30;;;;;;;;;;;20.10;54.50;;;;;;5026696;28;1172;-75
2022/04/06 12:01:02;;;;;;;;;;;20.20;54.60;;;;;;5030664;28;1224;-75
2022/04/06 12:03:28;;;;;;;;;;;20.20;54.60;;;;;;5013582;28;1971;-74
2022/04/06 12:05:54;;;;;;;;;;;20.10;54.60;;;;;;5013905;28;1295;-74
2022/04/06 12:08:19;;;;;;;;;;;20.10;54.60;;;;;;5032239;28;966;-74
2022/04/06 12:11:03;;;;;;;;;;;20.10;54.60;;;;;;5030774;22;3730;-70
2022/04/06 12:13:29;;;;;;;;;;;20.10;54.70;;;;;;4995876;28;862;-70
2022/04/06 12:15:55;;;;;;;;;;;20.10;54.70;;;;;;4995666;28;977;-70
2022/04/06 12:18:20;;;;;;;;;;;20.10;54.70;;;;;;4996306;28;883;-70
2022/04/06 12:20:46;;;;;;;;;;;20.10;54.70;;;;;;4996049;28;1180;-70
2022/04/06 12:23:12;;;;;;;;;;;20.10;54.70;;;;;;4996169;28;1977;-70
2022/04/06 12:25:37;;;;;;;;;;;20.10;54.80;;;;;;4995760;28;907;-69
2022/04/06 12:28:10;;;;;;;;;;;20.10;54.80;;;;;;5001289;28;1268;-71
2022/04/06 12:30:48;;;;;;;;;;;20.10;54.80;;;;;;5033260;28;1211;-70
2022/04/06 12:33:13;;;;;;;;;;;20.10;54.80;;;;;;5016344;28;978;-70
2022/04/06 12:35:39;;;;;;;;;;;20.10;54.80;;;;;;5032812;28;915;-70
2022/04/06 12:38:06;;;;;;;;;;;20.10;54.90;;;;;;5014806;28;1187;-69
2022/04/06 12:40:32;;;;;;;;;;;20.00;54.80;;;;;;4995907;28;1254;-71
2022/04/06 12:42:57;;;;;;;;;;;20.00;54.90;;;;;;4995717;28;1906;-70
2022/04/06 12:45:22;;;;;;;;;;;20.00;54.90;;;;;;4995627;28;915;-69
2022/04/06 12:47:48;;;;;;;;;;;20.00;54.90;;;;;;5013751;28;926;-69
2022/04/06 12:50:19;;;;;;;;;;;20.00;54.90;;;;;;4995530;28;1273;-69
2022/04/06 12:52:47;;;;;;;;;;;20.00;54.90;;;;;;4996099;28;932;-70
2022/04/06 12:55:13;;;;;;;;;;;20.00;54.90;;;;;;4995977;28;895;-70
2022/04/06 12:57:38;;;;;;;;;;;20.00;55.00;;;;;;5010961;28;1809;-71
2022/04/06 13:00:13;;;;;;;;;;;19.90;54.90;;;;;;5005018;28;1820;-70
2022/04/06 13:02:51;;;;;;;;;;;20.00;55.00;;;;;;5007440;28;1974;-70
2022/04/06 13:05:19;;;;;;;;;;;20.00;55.00;;;;;;5012881;28;1747;-71
2022/04/06 13:07:46;;;;;;;;;;;19.90;55.00;;;;;;5014462;28;1761;-70
2022/04/06 13:10:19;;;;;;;;;;;19.90;55.00;;;;;;5004606;28;1282;-71
2022/04/06 13:12:45;;;;;;;;;;;20.00;55.10;;;;;;5012232;28;1492;-70
2022/04/06 13:15:13;;;;;;;;;;;19.90;55.10;;;;;;5012636;28;1009;-70
2022/04/06 13:17:38;;;;;;;;;;;19.90;55.10;;;;;;5012706;28;1431;-69
2022/04/06 13:20:04;;;;;;;;;;;19.90;55.10;;;;;;4995761;28;1207;-69
2022/04/06 13:22:29;;;;;;;;;;;19.90;55.10;;;;;;4995625;28;1969;-68
2022/04/06 13:24:55;;;;;;;;;;;19.90;55.10;;;;;;5012846;28;907;-68
2022/04/06 13:27:22;;;;;;;;;;;19.90;55.20;;;;;;5012745;28;1407;-69
2022/04/06 13:29:47;;;;;;;;;;;19.90;55.20;;;;;;5032593;28;1586;-70
2022/04/06 13:32:12;;;;;;;;;;;19.90;55.20;;;;;;5032680;28;1017;-70
2022/04/06 13:34:38;;;;;;;;;;;19.90;55.20;;;;;;5032738;28;776;-71
2022/04/06 13:37:04;;;;;;;;;;;19.90;55.20;;;;;;5021703;28;1388;-70
2022/04/06 13:39:29;;;;;;;;;;;19.80;55.20;;;;;;5012701;28;2472;-69
2022/04/06 13:41:55;;;;;;;;;;;19.80;55.30;;;;;;5004923;28;1325;-69
2022/04/06 13:44:27;;;;;;;;;;;19.80;55.30;;;;;;5002026;28;1962;-68
2022/04/06 13:46:53;;;;;;;;;;;19.80;55.30;;;;;;5006342;28;1103;-70
2022/04/06 13:49:19;;;;;;;;;;;19.80;55.30;;;;;;5035407;28;815;-70
2022/04/06 13:51:45;;;;;;;;;;;19.80;55.40;;;;;;5018291;28;1284;-70
2022/04/06 13:54:11;;;;;;;;;;;19.80;55.40;;;;;;5018496;28;871;-70
2022/04/06 13:56:37;;;;;;;;;;;19.80;55.40;;;;;;5035807;28;812;-69
2022/04/06 13:59:03;;;;;;;;;;;19.80;55.50;;;;;;5036000;28;1122;-70
2022/04/06 14:01:28;;;;;;;;;;;19.80;55.50;;;;;;5035881;28;1199;-70
2022/04/06 14:03:53;;;;;;;;;;;19.70;55.40;;;;;;5018242;28;1953;-71
2022/04/06 14:06:19;;;;;;;;;;;19.70;55.50;;;;;;5035532;28;941;-70
2022/04/06 14:08:44;;;;;;;;;;;19.70;55.50;;;;;;5017978;28;916;-70
2022/04/06 14:11:10;;;;;;;;;;;19.80;55.50;;;;;;5035337;28;1175;-70
2022/04/06 14:13:35;;;;;;;;;;;19.70;55.60;;;;;;5035597;28;978;-70
2022/04/06 14:16:01;;;;;;;;;;;19.70;55.60;;;;;;5017470;28;1288;-70
2022/04/06 14:18:26;;;;;;;;;;;19.70;55.60;;;;;;5017872;28;958;-69
2022/04/06 14:20:51;;;;;;;;;;;19.70;55.60;;;;;;5018165;28;1306;-69
2022/04/06 14:23:17;;;;;;;;;;;19.70;55.60;;;;;;5035308;28;1971;-69
2022/04/06 14:25:42;;;;;;;;;;;19.70;55.60;;;;;;5035179;28;823;-70
2022/04/06 14:28:08;;;;;;;;;;;19.70;55.60;;;;;;5026894;28;1158;-70
2022/04/06 14:30:33;;;;;;;;;;;19.70;55.60;;;;;;5017733;28;1220;-70
2022/04/06 14:32:59;;;;;;;;;;;19.60;55.60;;;;;;5035386;28;799;-70
2022/04/06 14:35:24;;;;;;;;;;;19.60;55.60;;;;;;5035273;28;1069;-70
2022/04/06 14:37:50;;;;;;;;;;;19.60;55.60;;;;;;5018181;28;1072;-70
2022/04/06 14:40:15;;;;;;;;;;;19.60;55.60;;;;;;4997718;28;1238;-69